Time;durP1;ratioP1;P1;durP2;ratioP2;P2;SDS_P1;SDS_P2;PMS_P1;PMS_P2;Temp;Humidity;BMP_temperature;BMP_pressure;BME280_temperature;BME280_humidity;BME280_pressure;Samples;Min_cycle;Max_cycle;Signal;HPM_P1;HPM_P2
2022/11/06 00:01:10;;;;;;;7.28;3.30;;;10.30;99.90;;;;;;5002010;28;20085;-68
2022/11/06 00:03:36;;;;;;;7.18;3.65;;;10.20;99.90;;;;;;4992853;28;20445;-68
2022/11/06 00:08:57;;;;;;;8.77;3.60;;;10.20;99.90;;;;;;4999441;28;20120;-69
2022/11/06 00:11:23;;;;;;;8.63;3.50;;;10.20;99.90;;;;;;5001658;28;20512;-68
2022/11/06 00:13:51;;;;;;;6.10;3.47;;;10.10;99.90;;;;;;5011726;28;20046;-68
2022/11/06 00:16:18;;;;;;;6.85;3.47;;;10.10;99.90;;;;;;5000712;28;20046;-68
2022/11/06 00:18:45;;;;;;;8.88;3.65;;;10.10;99.90;;;;;;5006625;28;20502;-68
2022/11/06 00:21:20;;;;;;;9.90;3.70;;;10.10;99.90;;;;;;5002746;28;20476;-69
2022/11/06 00:23:47;;;;;;;7.80;3.78;;;10.10;99.90;;;;;;5006229;28;20605;-68
2022/11/06 00:26:16;;;;;;;8.23;3.60;;;10.00;99.90;;;;;;5000067;28;20299;-69
2022/11/06 00:28:42;;;;;;;7.28;3.92;;;10.10;99.90;;;;;;5003826;28;20042;-68
2022/11/06 00:31:10;;;;;;;8.48;3.45;;;10.00;99.90;;;;;;5005394;28;20041;-68
2022/11/06 00:33:37;;;;;;;7.30;3.83;;;10.00;99.90;;;;;;5010920;28;20269;-75
2022/11/06 00:36:10;;;;;;;9.07;4.20;;;10.00;99.90;;;;;;5006560;28;20037;-69
2022/11/06 00:38:35;;;;;;;9.65;4.55;;;10.00;99.90;;;;;;4999751;28;20107;-73
2022/11/06 00:41:08;;;;;;;6.03;3.47;;;9.90;99.90;;;;;;5002933;28;20128;-74
2022/11/06 00:43:34;;;;;;;8.82;3.65;;;9.90;99.90;;;;;;4997933;28;20042;-68
2022/11/06 00:46:06;;;;;;;5.68;3.30;;;10.00;99.90;;;;;;4999163;28;20061;-69
2022/11/06 00:48:36;;;;;;;5.38;3.47;;;10.00;99.90;;;;;;4999070;28;20392;-70
2022/11/06 00:51:22;;;;;;;13.20;5.13;;;9.90;99.90;;;;;;5012353;28;20136;-68
2022/11/06 00:53:53;;;;;;;5.97;3.53;;;9.90;99.90;;;;;;4993506;28;20207;-68
2022/11/06 00:56:19;;;;;;;8.77;3.35;;;9.90;99.90;;;;;;5002408;28;20295;-69
2022/11/06 00:58:46;;;;;;;6.70;3.33;;;9.90;99.90;;;;;;5010024;28;20476;-69
2022/11/06 01:01:14;;;;;;;;;;;9.90;99.90;;;;;;5005770;28;20038;-69
2022/11/06 01:03:42;;;;;;;9.57;3.35;;;9.90;99.90;;;;;;5023382;28;19924;-70
2022/11/06 01:06:11;;;;;;;8.20;3.80;;;9.90;99.90;;;;;;5002093;28;20057;-69
2022/11/06 01:08:38;;;;;;;8.48;3.30;;;9.90;99.90;;;;;;5004560;28;20068;-68
2022/11/06 01:11:07;;;;;;;8.02;3.92;;;9.90;99.90;;;;;;5013356;28;20042;-68
2022/11/06 01:13:36;;;;;;;9.90;3.60;;;9.90;99.90;;;;;;5002464;28;20049;-68
2022/11/06 01:16:08;;;;;;;12.50;4.45;;;9.90;99.90;;;;;;5000275;28;20054;-68
2022/11/06 01:18:35;;;;;;;6.80;4.18;;;9.90;99.90;;;;;;5002254;28;20091;-69
2022/11/06 01:21:11;;;;;;;7.78;3.90;;;9.90;99.90;;;;;;5000756;28;20042;-69
2022/11/06 01:23:37;;;;;;;9.15;3.75;;;9.90;99.90;;;;;;5006280;28;20045;-68
2022/11/06 01:26:07;;;;;;;8.38;4.05;;;9.90;99.90;;;;;;5004318;28;20046;-68
2022/11/06 01:28:36;;;;;;;9.10;4.05;;;9.90;99.90;;;;;;5005805;28;20062;-69
2022/11/06 01:31:04;;;;;;;9.65;4.00;;;9.80;99.90;;;;;;5004123;28;20117;-68
2022/11/06 01:33:34;;;;;;;6.40;3.63;;;9.90;99.90;;;;;;5005385;28;20041;-68
2022/11/06 01:35:59;;;;;;;8.80;4.20;;;9.90;99.90;;;;;;4984570;28;20072;-68
2022/11/06 01:38:26;;;;;;;7.93;3.70;;;9.90;99.90;;;;;;5005742;28;20539;-68
2022/11/06 01:40:52;;;;;;;7.50;4.25;;;9.90;99.90;;;;;;5009645;28;20313;-69
2022/11/06 01:43:43;;;;;;;7.10;4.00;;;9.80;99.90;;;;;;5006583;28;20046;-69
2022/11/06 01:46:09;;;;;;;9.20;4.45;;;9.90;99.90;;;;;;5008109;28;20411;-68
2022/11/06 01:48:40;;;;;;;9.52;4.00;;;9.90;99.90;;;;;;5010119;28;20045;-69
2022/11/06 01:51:08;;;;;;;7.00;3.67;;;9.90;99.90;;;;;;5013032;28;20034;-68
2022/11/06 01:53:34;;;;;;;11.82;3.90;;;9.80;99.90;;;;;;5000202;28;20061;-68
2022/11/06 01:56:03;;;;;;;8.45;3.65;;;9.90;99.90;;;;;;5005299;28;20030;-69
2022/11/06 01:58:32;;;;;;;9.00;4.10;;;9.80;99.90;;;;;;5012348;28;20053;-68
2022/11/06 02:00:59;;;;;;;6.65;3.58;;;9.90;99.90;;;;;;5006111;28;20427;-68
2022/11/06 02:03:25;;;;;;;4.88;3.13;;;9.80;99.90;;;;;;5001365;28;20042;-69
2022/11/06 02:05:51;;;;;;;7.50;3.63;;;9.80;99.90;;;;;;5011863;28;20132;-69
2022/11/06 02:08:20;;;;;;;8.20;4.32;;;9.90;99.90;;;;;;4991443;28;20042;-68
2022/11/06 02:10:47;;;;;;;8.18;4.10;;;9.80;99.90;;;;;;5018219;28;20042;-68
2022/11/06 02:13:12;;;;;;;;;;;9.80;99.90;;;;;;5007130;28;20034;-68
2022/11/06 02:16:05;;;;;;;6.82;3.90;;;9.90;99.90;;;;;;5012327;28;19932;-69
2022/11/06 02:18:46;;;;;;;7.18;4.05;;;9.90;99.90;;;;;;5007576;28;20034;-68
2022/11/06 02:21:46;;;;;;;9.52;4.25;;;9.80;99.90;;;;;;5005943;28;20049;-68
2022/11/06 02:24:52;;;;;;;7.38;3.80;;;9.90;99.90;;;;;;5019533;28;20049;-68
2022/11/06 02:27:22;;;;;;;9.40;4.13;;;9.90;99.90;;;;;;5007587;28;20037;-68
2022/11/06 02:30:07;;;;;;;9.95;4.88;;;9.90;99.90;;;;;;5008903;28;20061;-68
2022/11/06 02:32:40;;;;;;;6.78;4.05;;;9.90;99.90;;;;;;5009377;28;20491;-69
2022/11/06 02:35:23;;;;;;;10.05;4.05;;;9.90;99.90;;;;;;5015400;28;20046;-68
2022/11/06 02:37:54;;;;;;;11.57;3.90;;;9.90;99.90;;;;;;5006481;28;20050;-69
2022/11/06 02:40:23;;;;;;;8.98;4.88;;;9.90;99.90;;;;;;5008578;28;20037;-69
2022/11/06 02:42:54;;;;;;;12.73;5.10;;;9.90;99.90;;;;;;5002615;28;20184;-69
2022/11/06 02:45:22;;;;;;;8.50;5.28;;;9.90;99.90;;;;;;5002087;28;20129;-69
2022/11/06 02:47:53;;;;;;;10.90;4.57;;;9.90;99.90;;;;;;5004879;28;20042;-69
2022/11/06 02:50:27;;;;;;;6.32;3.95;;;9.90;99.90;;;;;;5006653;28;20499;-69
2022/11/06 02:53:05;;;;;;;7.90;5.10;;;10.00;99.90;;;;;;4993013;28;20495;-69
2022/11/06 02:55:44;;;;;;;11.60;4.65;;;9.90;99.90;;;;;;5005906;28;20057;-69
2022/11/06 02:58:27;;;;;;;6.25;4.43;;;9.90;99.90;;;;;;5010799;28;20044;-70
2022/11/06 03:01:01;;;;;;;9.90;4.88;;;10.00;99.90;;;;;;4992873;28;20570;-69
2022/11/06 03:03:33;;;;;;;10.77;5.38;;;10.00;99.90;;;;;;5008978;28;20081;-68
2022/11/06 03:06:09;;;;;;;8.13;4.57;;;10.00;99.90;;;;;;4999948;28;20049;-69
2022/11/06 03:09:00;;;;;;;8.82;4.18;;;10.00;99.90;;;;;;5012331;28;20112;-68
2022/11/06 03:11:31;;;;;;;8.43;4.32;;;10.00;99.90;;;;;;5023757;22;20053;-72
2022/11/06 03:13:59;;;;;;;9.90;5.05;;;10.00;99.90;;;;;;5024046;28;20062;-72
2022/11/06 03:16:34;;;;;;;8.32;5.00;;;10.00;99.90;;;;;;5016825;28;20104;-72
2022/11/06 03:19:03;;;;;;;7.85;4.60;;;10.00;99.90;;;;;;5004653;28;20327;-72
2022/11/06 03:21:37;;;;;;;7.57;4.80;;;10.00;99.90;;;;;;5022412;28;20475;-71
2022/11/06 03:24:11;;;;;;;11.80;5.53;;;10.00;99.90;;;;;;5026821;28;20125;-72
2022/11/06 03:26:45;;;;;;;6.55;4.55;;;10.00;99.90;;;;;;5019821;28;20042;-72
2022/11/06 03:29:25;;;;;;;8.60;4.60;;;9.90;99.90;;;;;;5016590;28;20090;-72
2022/11/06 03:32:07;;;;;;;9.85;4.78;;;10.00;99.90;;;;;;5017978;28;20045;-72
2022/11/06 03:35:10;;;;;;;11.93;4.93;;;10.00;99.90;;;;;;5024205;28;20045;-72
2022/11/06 03:37:43;;;;;;;12.27;4.70;;;10.00;99.90;;;;;;4983566;28;20111;-72
2022/11/06 03:40:14;;;;;;;8.18;4.30;;;10.00;99.90;;;;;;5027523;28;20063;-72
2022/11/06 03:42:43;;;;;;;7.72;4.38;;;10.00;99.90;;;;;;5023052;28;20460;-72
2022/11/06 03:45:17;;;;;;;9.07;4.63;;;10.00;99.90;;;;;;5017669;28;20049;-72
2022/11/06 03:47:46;;;;;;;15.32;5.07;;;10.00;99.90;;;;;;5021902;28;20527;-72
2022/11/06 03:50:25;;;;;;;6.90;4.72;;;10.00;99.90;;;;;;5024591;28;20037;-72
2022/11/06 03:53:13;;;;;;;10.25;4.43;;;10.00;99.90;;;;;;5026039;28;20718;-71
2022/11/06 03:55:57;;;;;;;8.95;5.03;;;10.00;99.90;;;;;;5008656;28;20060;-72
2022/11/06 03:58:28;;;;;;;11.75;5.30;;;10.00;99.90;;;;;;5019542;28;20510;-72
2022/11/06 04:00:56;;;;;;;8.57;4.28;;;10.00;99.90;;;;;;5019360;28;20071;-72
2022/11/06 04:03:31;;;;;;;6.53;4.10;;;10.00;99.90;;;;;;5018786;28;20103;-72
2022/11/06 04:06:23;;;;;;;10.32;4.30;;;10.00;99.90;;;;;;5013294;28;20042;-72
2022/11/06 04:14:25;;;;;;;6.95;4.50;;;10.00;99.90;;;;;;5024132;28;20124;-72
2022/11/06 04:16:54;;;;;;;9.93;4.85;;;10.10;99.90;;;;;;5013702;28;20518;-72
2022/11/06 04:19:22;;;;;;;8.15;4.63;;;10.00;99.90;;;;;;5021083;28;20044;-72
2022/11/06 04:22:25;;;;;;;10.70;4.85;;;10.00;99.90;;;;;;5016421;28;20055;-72
2022/11/06 04:28:50;;;;;;;11.90;4.90;;;10.10;99.90;;;;;;4955687;28;20545;-71
2022/11/06 04:31:32;;;;;;;7.47;4.38;;;10.10;99.90;;;;;;4964460;28;20137;-72
2022/11/06 04:34:08;;;;;;;9.50;4.60;;;10.10;99.90;;;;;;4962507;28;20046;-72
2022/11/06 04:37:14;;;;;;;7.90;4.38;;;10.10;99.90;;;;;;5003198;28;20076;-72
2022/11/06 04:40:07;;;;;;;12.63;4.70;;;10.10;99.90;;;;;;5002236;28;20187;-72
2022/11/06 04:42:42;;;;;;;8.68;5.10;;;10.10;99.90;;;;;;5018179;28;20616;-72
2022/11/06 04:45:33;;;;;;;11.25;4.55;;;10.10;99.90;;;;;;5018067;28;20120;-71
2022/11/06 04:48:00;;;;;;;7.88;4.15;;;10.10;99.90;;;;;;5006864;28;20045;-72
2022/11/06 04:50:29;;;;;;;7.15;4.22;;;10.10;99.90;;;;;;5021557;28;20056;-72
2022/11/06 04:52:56;;;;;;;9.55;4.43;;;10.10;99.90;;;;;;5017367;28;20044;-72
2022/11/06 04:55:22;;;;;;;9.77;4.15;;;10.10;99.90;;;;;;5018125;28;20105;-72
2022/11/06 04:57:48;;;;;;;10.40;4.85;;;10.10;99.90;;;;;;5013877;28;20127;-71
2022/11/06 05:00:15;;;;;;;7.27;4.07;;;10.10;99.90;;;;;;5018403;28;20531;-72
2022/11/06 05:02:41;;;;;;;9.65;4.88;;;10.10;99.90;;;;;;5017156;28;20057;-72
2022/11/06 05:05:07;;;;;;;8.30;4.47;;;10.10;99.90;;;;;;5014726;28;20135;-71
2022/11/06 05:07:33;;;;;;;9.73;3.95;;;10.10;99.90;;;;;;5019797;28;20380;-72
2022/11/06 05:09:58;;;;;;;9.83;4.40;;;10.10;99.90;;;;;;5020681;28;20168;-71
2022/11/06 05:12:24;;;;;;;10.53;4.20;;;10.10;99.90;;;;;;5023525;28;20114;-72
2022/11/06 05:14:49;;;;;;;14.43;4.63;;;10.10;99.90;;;;;;5023014;28;20109;-71
2022/11/06 05:17:15;;;;;;;9.27;4.07;;;10.10;99.90;;;;;;5021149;28;20505;-71
2022/11/06 05:19:41;;;;;;;7.70;3.57;;;10.10;99.90;;;;;;5024657;28;20441;-72
2022/11/06 05:24:52;;;;;;;7.93;4.32;;;10.10;99.90;;;;;;5027385;28;20455;-71
2022/11/06 05:27:17;;;;;;;12.53;4.20;;;10.10;99.90;;;;;;5029493;28;20128;-71
2022/11/06 05:29:43;;;;;;;15.17;4.30;;;10.10;99.90;;;;;;5026153;28;20092;-71
2022/11/06 05:32:09;;;;;;;7.03;4.30;;;10.10;99.90;;;;;;5024448;28;20140;-72
2022/11/06 05:34:34;;;;;;;7.53;3.90;;;10.10;99.90;;;;;;5023198;28;20092;-72
2022/11/06 05:37:00;;;;;;;7.77;4.17;;;10.00;99.90;;;;;;5028026;28;20045;-72
2022/11/06 05:39:26;;;;;;;11.63;4.03;;;10.10;99.90;;;;;;5025992;28;20906;-72
2022/11/06 05:41:51;;;;;;;10.97;4.40;;;10.10;99.90;;;;;;5021843;28;20107;-72
2022/11/06 05:44:17;;;;;;;9.83;3.53;;;10.10;99.90;;;;;;5022446;28;20088;-72
2022/11/06 05:46:43;;;;;;;8.53;4.10;;;10.10;99.90;;;;;;5023066;28;21764;-72
2022/11/06 05:49:09;;;;;;;8.77;3.97;;;10.10;99.90;;;;;;5025438;28;20854;-71
2022/11/06 05:51:35;;;;;;;8.60;3.50;;;10.10;99.90;;;;;;5025602;28;20352;-71
2022/11/06 05:54:00;;;;;;;8.98;3.55;;;10.10;99.90;;;;;;5022727;28;20172;-72
2022/11/06 05:56:26;;;;;;;8.77;4.13;;;10.10;99.90;;;;;;5027723;28;20037;-71
2022/11/06 05:58:52;;;;;;;5.93;3.63;;;10.10;99.90;;;;;;5017003;28;20045;-72
2022/11/06 06:01:18;;;;;;;6.70;3.60;;;10.10;99.90;;;;;;5024836;28;20395;-72
2022/11/06 06:03:44;;;;;;;6.13;3.38;;;10.10;99.90;;;;;;5025705;28;20134;-71
2022/11/06 06:06:09;;;;;;;8.00;4.43;;;10.10;99.90;;;;;;5027056;28;20195;-71
2022/11/06 06:08:35;;;;;;;5.93;3.63;;;10.10;99.90;;;;;;5023819;28;20547;-72
2022/11/06 06:11:04;;;;;;;10.57;4.07;;;10.10;99.90;;;;;;5025701;28;20144;-71
2022/11/06 06:13:30;;;;;;;7.38;3.75;;;10.00;99.90;;;;;;5035499;28;20041;-71
2022/11/06 06:15:59;;;;;;;5.60;3.20;;;10.10;99.90;;;;;;5021529;28;20489;-71
2022/11/06 06:18:25;;;;;;;7.80;3.55;;;10.10;99.90;;;;;;5024930;28;20049;-71
2022/11/06 06:20:51;;;;;;;7.13;3.77;;;10.10;99.90;;;;;;5026323;28;20046;-71
2022/11/06 06:23:16;;;;;;;8.93;3.77;;;10.00;99.90;;;;;;5028667;28;20045;-72
2022/11/06 06:25:42;;;;;;;6.37;3.83;;;10.00;99.90;;;;;;5028004;28;20045;-71
2022/11/06 06:28:08;;;;;;;9.30;3.13;;;10.00;99.90;;;;;;5030632;28;20055;-71
2022/11/06 06:30:34;;;;;;;8.60;4.53;;;10.00;99.90;;;;;;5029202;28;20534;-72
2022/11/06 06:33:04;;;;;;;6.30;3.72;;;10.10;99.90;;;;;;5014671;28;20120;-71
2022/11/06 06:35:30;;;;;;;6.85;4.00;;;10.00;99.90;;;;;;5008075;28;20033;-71
2022/11/06 06:37:56;;;;;;;6.95;3.30;;;10.00;99.90;;;;;;5030699;28;20493;-71
2022/11/06 06:40:22;;;;;;;6.87;3.13;;;10.00;99.90;;;;;;5024783;28;20045;-71
2022/11/06 06:42:48;;;;;;;6.33;3.50;;;10.00;99.90;;;;;;5016201;28;20496;-72
2022/11/06 06:45:14;;;;;;;6.68;3.00;;;10.00;99.90;;;;;;5019520;28;20026;-72
2022/11/06 06:47:40;;;;;;;6.93;3.33;;;10.00;99.90;;;;;;5010738;28;20083;-71
2022/11/06 06:50:06;;;;;;;5.22;3.40;;;10.00;99.90;;;;;;5017424;28;20041;-72
2022/11/06 06:52:32;;;;;;;8.57;3.30;;;10.00;99.90;;;;;;5022555;28;20045;-71
2022/11/06 06:54:57;;;;;;;7.07;3.67;;;9.90;99.90;;;;;;5019470;28;20037;-71
2022/11/06 06:57:23;;;;;;;10.13;3.60;;;10.00;99.90;;;;;;5017437;28;20045;-71
2022/11/06 06:59:49;;;;;;;7.03;3.60;;;10.00;99.90;;;;;;5020482;28;20033;-71
2022/11/06 07:02:14;;;;;;;6.77;3.53;;;10.00;99.90;;;;;;5019877;28;20288;-70
2022/11/06 07:04:40;;;;;;;8.57;3.40;;;10.00;99.90;;;;;;5017946;28;20426;-71
2022/11/06 07:07:06;;;;;;;11.90;4.37;;;10.00;99.90;;;;;;5012964;28;20712;-71
2022/11/06 07:09:31;;;;;;;7.97;3.43;;;10.00;99.90;;;;;;5017927;28;20045;-71
2022/11/06 07:11:57;;;;;;;7.90;2.93;;;10.00;99.90;;;;;;5018244;28;20052;-71
2022/11/06 07:14:23;;;;;;;8.80;3.08;;;10.00;99.90;;;;;;5017165;28;20306;-71
2022/11/06 07:16:49;;;;;;;4.87;2.90;;;10.00;99.90;;;;;;5019762;28;20041;-71
2022/11/06 07:19:14;;;;;;;5.40;2.73;;;10.00;99.90;;;;;;5027346;28;20033;-71
2022/11/06 07:21:40;;;;;;;10.00;3.30;;;10.00;99.90;;;;;;5022827;28;20037;-71
2022/11/06 07:24:06;;;;;;;7.13;3.03;;;10.00;99.90;;;;;;5009235;28;20045;-71
2022/11/06 07:26:32;;;;;;;7.30;2.67;;;10.00;99.90;;;;;;5007694;28;20042;-71
2022/11/06 07:28:57;;;;;;;6.53;2.80;;;10.00;99.90;;;;;;5023763;28;20413;-71
2022/11/06 07:31:23;;;;;;;5.73;2.63;;;10.00;99.90;;;;;;5025102;28;20410;-71
2022/11/06 07:33:49;;;;;;;5.75;2.72;;;10.00;99.90;;;;;;5020517;28;20454;-72
2022/11/06 07:36:15;;;;;;;6.70;2.20;;;10.00;99.90;;;;;;5021706;28;20064;-71
2022/11/06 07:38:42;;;;;;;7.18;2.67;;;10.00;99.90;;;;;;5021664;28;20102;-71
2022/11/06 07:41:11;;;;;;;6.38;2.90;;;10.00;99.90;;;;;;5017225;28;20056;-71
2022/11/06 07:43:37;;;;;;;7.00;2.25;;;10.00;99.90;;;;;;5015726;28;20041;-71
2022/11/06 07:46:05;;;;;;;5.28;2.58;;;10.10;99.90;;;;;;5016688;28;20090;-71
2022/11/06 07:48:31;;;;;;;6.53;3.00;;;10.00;99.90;;;;;;5017031;28;20049;-72
2022/11/06 07:51:00;;;;;;;6.70;2.55;;;10.00;99.90;;;;;;5016744;28;20462;-71
2022/11/06 07:53:26;;;;;;;7.90;2.58;;;10.00;99.90;;;;;;5018722;28;20045;-72
2022/11/06 07:55:54;;;;;;;6.00;2.15;;;10.00;99.90;;;;;;5013491;28;20384;-72
2022/11/06 07:58:21;;;;;;;5.20;2.30;;;10.00;99.90;;;;;;5020676;28;20278;-72
2022/11/06 08:00:50;;;;;;;;;;;10.10;99.90;;;;;;5020169;28;20072;-72
2022/11/06 08:03:16;;;;;;;13.30;2.78;;;10.10;99.90;;;;;;5021046;28;19999;-72
2022/11/06 08:05:42;;;;;;;5.43;2.40;;;10.10;99.90;;;;;;5009716;28;20284;-72
2022/11/06 08:08:08;;;;;;;6.72;2.72;;;10.10;99.90;;;;;;5023104;28;20045;-72
2022/11/06 08:10:39;;;;;;;6.88;2.17;;;10.10;99.90;;;;;;5017323;28;20060;-72
2022/11/06 08:13:05;;;;;;;6.97;2.13;;;10.10;99.90;;;;;;5029959;28;20056;-71
2022/11/06 08:15:31;;;;;;;5.13;2.10;;;10.10;99.90;;;;;;5014837;28;20045;-71
2022/11/06 08:17:58;;;;;;;4.88;2.03;;;10.10;99.90;;;;;;5014227;28;20465;-72
2022/11/06 08:20:24;;;;;;;3.63;1.90;;;10.10;99.90;;;;;;5024846;28;20132;-71
2022/11/06 08:22:50;;;;;;;9.83;2.90;;;10.10;99.90;;;;;;5023962;28;20076;-71
2022/11/06 08:25:16;;;;;;;6.57;2.27;;;10.10;99.90;;;;;;5019114;28;20378;-72
2022/11/06 08:27:41;;;;;;;8.38;2.22;;;10.20;99.90;;;;;;5013394;28;20041;-72
2022/11/06 08:30:08;;;;;;;5.63;2.47;;;10.10;99.90;;;;;;5022029;28;20369;-72
2022/11/06 08:32:33;;;;;;;10.05;2.58;;;10.20;99.90;;;;;;5018620;28;20386;-72
2022/11/06 08:34:59;;;;;;;7.33;2.00;;;10.20;99.90;;;;;;5017514;28;20044;-71
2022/11/06 08:37:25;;;;;;;3.10;2.10;;;10.20;99.90;;;;;;5019347;28;20140;-72
2022/11/06 08:39:50;;;;;;;5.23;2.23;;;10.20;99.90;;;;;;5009446;28;20124;-72
2022/11/06 08:42:16;;;;;;;6.67;1.87;;;10.20;99.90;;;;;;5017020;28;20078;-72
2022/11/06 08:44:41;;;;;;;4.57;1.77;;;10.20;99.90;;;;;;5020447;28;20469;-72
2022/11/06 08:47:08;;;;;;;7.67;2.10;;;10.30;99.90;;;;;;5006676;28;20041;-71
2022/11/06 08:49:33;;;;;;;4.68;1.88;;;10.30;99.90;;;;;;5014969;28;20475;-72
2022/11/06 08:51:59;;;;;;;9.33;2.47;;;10.20;99.90;;;;;;5021004;28;20060;-71
2022/11/06 08:54:25;;;;;;;6.10;2.10;;;10.30;99.90;;;;;;5021531;28;20099;-71
2022/11/06 08:56:50;;;;;;;6.28;2.22;;;10.30;99.90;;;;;;5023156;28;20041;-71
2022/11/06 08:59:16;;;;;;;4.83;1.53;;;10.30;99.90;;;;;;5012596;28;20048;-71
2022/11/06 09:01:42;;;;;;;6.43;1.83;;;10.30;99.90;;;;;;5002692;28;20048;-72
2022/11/06 09:04:07;;;;;;;3.03;1.87;;;10.30;99.90;;;;;;5016356;28;20112;-71
2022/11/06 09:06:33;;;;;;;4.18;1.98;;;10.20;99.90;;;;;;5014195;28;20052;-71
2022/11/06 09:08:59;;;;;;;9.70;1.80;;;10.30;99.90;;;;;;5023029;28;20037;-71
2022/11/06 09:11:24;;;;;;;3.17;1.70;;;10.30;99.90;;;;;;5036645;22;20166;-72
2022/11/06 09:13:50;;;;;;;5.97;2.63;;;10.40;99.90;;;;;;5017831;28;20025;-72
2022/11/06 09:16:16;;;;;;;3.90;1.90;;;10.30;99.90;;;;;;5021652;28;20044;-72
2022/11/06 09:18:42;;;;;;;3.30;1.70;;;10.40;99.90;;;;;;5025446;28;20159;-72
2022/11/06 09:21:08;;;;;;;7.22;2.85;;;10.40;99.90;;;;;;5025385;28;20278;-71
2022/11/06 09:23:34;;;;;;;5.03;2.27;;;10.40;99.90;;;;;;5019326;28;20049;-72
2022/11/06 09:25:59;;;;;;;8.88;1.60;;;10.40;99.90;;;;;;5019258;28;20566;-72
2022/11/06 09:28:25;;;;;;;7.33;2.37;;;10.40;99.90;;;;;;5027164;28;20051;-71
2022/11/06 09:30:51;;;;;;;3.07;1.80;;;10.40;99.90;;;;;;5022264;28;20038;-72
2022/11/06 09:33:17;;;;;;;15.20;2.33;;;10.40;99.90;;;;;;5019430;28;20617;-72
2022/11/06 09:35:42;;;;;;;8.23;2.15;;;10.40;99.90;;;;;;5011246;28;20497;-72
2022/11/06 09:38:14;;;;;;;3.17;1.33;;;10.40;99.90;;;;;;5014803;28;20136;-72
2022/11/06 09:40:59;;;;;;;5.05;2.20;;;10.50;99.90;;;;;;5022912;28;20506;-72
2022/11/06 09:44:08;;;;;;;8.52;2.03;;;10.50;99.90;;;;;;5024429;28;20467;-72
2022/11/06 09:46:44;;;;;;;5.43;1.70;;;10.50;99.90;;;;;;4951307;28;20069;-72
2022/11/06 09:49:37;;;;;;;3.15;1.67;;;10.50;99.90;;;;;;5019131;28;20045;-72
2022/11/06 09:52:16;;;;;;;8.60;1.88;;;10.50;99.90;;;;;;5019333;28;20615;-78
2022/11/06 09:54:49;;;;;;;5.90;2.20;;;10.50;99.90;;;;;;5019663;28;20113;-72
2022/11/06 09:57:18;;;;;;;4.30;1.77;;;10.50;99.90;;;;;;5019089;28;20045;-73
2022/11/06 09:59:47;;;;;;;7.57;1.88;;;10.50;99.90;;;;;;5032020;28;20051;-72
2022/11/06 10:02:32;;;;;;;5.55;1.83;;;10.60;99.90;;;;;;5013987;28;20441;-73
2022/11/06 10:05:20;;;;;;;7.25;2.22;;;10.60;99.90;;;;;;5018235;28;20040;-72
2022/11/06 10:07:49;;;;;;;5.78;1.60;;;10.60;99.90;;;;;;5016378;28;20044;-73
2022/11/06 10:10:18;;;;;;;5.28;2.47;;;10.60;99.90;;;;;;5026078;28;20041;-77
2022/11/06 10:13:14;;;;;;;4.85;1.70;;;10.60;99.90;;;;;;5023612;28;20551;-74
2022/11/06 10:16:04;;;;;;;5.90;1.60;;;10.70;99.90;;;;;;5027120;28;20390;-73
2022/11/06 10:18:45;;;;;;;6.15;1.83;;;10.70;99.90;;;;;;5024109;28;20494;-73
2022/11/06 10:21:18;;;;;;;5.13;1.60;;;10.70;99.90;;;;;;5030388;28;20033;-73
2022/11/06 10:23:58;;;;;;;6.53;1.55;;;10.80;99.90;;;;;;5029200;28;20115;-73
2022/11/06 10:26:40;;;;;;;3.55;1.50;;;10.80;99.90;;;;;;5023446;28;20065;-73
2022/11/06 10:29:29;;;;;;;6.60;1.40;;;10.80;99.90;;;;;;5023491;28;21055;-73
2022/11/06 10:32:25;;;;;;;3.85;1.35;;;10.90;99.90;;;;;;5040034;28;20037;-72
2022/11/06 10:35:37;;;;;;;4.63;1.63;;;10.90;99.90;;;;;;5015479;28;20116;-72
2022/11/06 10:38:10;;;;;;;2.60;1.20;;;10.90;99.90;;;;;;5010388;28;20084;-72
2022/11/06 10:40:36;;;;;;;8.40;1.60;;;11.00;99.90;;;;;;5028673;28;20446;-72
2022/11/06 10:43:41;;;;;;;4.80;1.40;;;11.00;99.90;;;;;;5018739;28;20042;-72
2022/11/06 10:46:28;;;;;;;7.22;1.25;;;11.00;99.90;;;;;;5019549;28;20048;-72
2022/11/06 10:49:00;;;;;;;2.60;1.20;;;11.00;99.90;;;;;;5021143;28;20410;-71
2022/11/06 10:51:58;;;;;;;4.20;1.60;;;11.10;99.90;;;;;;5022135;28;20041;-71
2022/11/06 10:54:39;;;;;;;1.80;1.00;;;11.10;99.90;;;;;;5011165;28;20514;-71
2022/11/06 10:57:32;;;;;;;3.05;1.27;;;11.10;99.90;;;;;;5019786;28;20049;-72
2022/11/06 10:59:58;;;;;;;4.53;1.30;;;11.10;99.90;;;;;;5005432;28;20060;-72
2022/11/06 11:02:29;;;;;;;4.85;1.35;;;11.10;99.90;;;;;;5025671;28;20116;-71
2022/11/06 11:04:58;;;;;;;3.10;1.30;;;11.10;99.90;;;;;;5020943;28;20092;-71
2022/11/06 11:07:28;;;;;;;3.50;1.30;;;11.10;99.90;;;;;;4999226;28;20095;-72
2022/11/06 11:09:53;;;;;;;5.20;1.77;;;11.20;99.90;;;;;;5017944;28;20295;-71
2022/11/06 11:12:28;;;;;;;3.17;1.57;;;11.20;99.90;;;;;;5018764;28;20052;-72
2022/11/06 11:15:24;;;;;;;3.95;1.70;;;11.20;99.90;;;;;;5018141;28;20286;-72
2022/11/06 11:18:33;;;;;;;7.38;1.85;;;11.20;99.90;;;;;;5009510;28;20123;-72
2022/11/06 11:21:17;;;;;;;5.63;1.55;;;11.20;99.90;;;;;;4957250;28;20066;-71
2022/11/06 11:23:44;;;;;;;5.13;1.42;;;11.20;99.90;;;;;;5032104;28;20384;-71
2022/11/06 11:26:27;;;;;;;4.75;1.20;;;11.20;99.90;;;;;;5024916;28;20076;-72
2022/11/06 11:28:54;;;;;;;4.68;1.75;;;11.20;99.90;;;;;;5017413;28;20246;-71
2022/11/06 11:31:28;;;;;;;3.78;1.33;;;11.20;99.90;;;;;;5007068;28;20124;-72
2022/11/06 11:33:57;;;;;;;6.82;1.40;;;11.30;99.90;;;;;;5016262;28;20200;-71
2022/11/06 11:36:22;;;;;;;5.20;1.73;;;11.20;99.90;;;;;;5016089;28;20049;-71
2022/11/06 11:38:49;;;;;;;8.13;2.33;;;11.30;99.90;;;;;;5013550;28;20053;-72
2022/11/06 11:41:17;;;;;;;;;;;11.30;99.90;;;;;;5018722;28;20103;-72
2022/11/06 11:43:54;;;;;;;6.22;1.35;;;11.30;99.90;;;;;;5017451;28;20093;-71
2022/11/06 11:46:20;;;;;;;9.48;2.15;;;11.30;99.90;;;;;;5017412;28;20045;-72
2022/11/06 11:48:50;;;;;;;6.60;1.20;;;11.40;99.90;;;;;;5019499;28;20343;-72
2022/11/06 11:51:31;;;;;;;3.20;1.20;;;11.40;99.90;;;;;;5017889;28;20069;-71
2022/11/06 11:54:02;;;;;;;3.33;1.60;;;11.50;99.90;;;;;;5023448;28;20041;-77
2022/11/06 11:56:30;;;;;;;5.30;1.83;;;11.50;99.90;;;;;;5020644;28;20048;-73
2022/11/06 11:58:59;;;;;;;1.95;1.20;;;11.60;99.90;;;;;;5020129;28;20487;-73
2022/11/06 12:01:39;;;;;;;5.60;1.25;;;11.70;99.90;;;;;;5024200;28;20057;-72
2022/11/06 12:04:26;;;;;;;6.47;1.60;;;11.70;99.90;;;;;;5016035;28;20041;-73
2022/11/06 12:06:56;;;;;;;2.45;1.15;;;11.80;99.90;;;;;;5038192;28;20087;-74
2022/11/06 12:09:24;;;;;;;4.20;1.40;;;11.80;99.90;;;;;;5030273;28;20127;-72
2022/11/06 12:11:55;;;;;;;3.35;1.75;;;11.80;99.90;;;;;;5023757;28;20549;-74
2022/11/06 12:14:20;;;;;;;4.80;1.20;;;11.80;99.90;;;;;;5023870;28;20562;-74
2022/11/06 12:16:50;;;;;;;2.67;1.03;;;11.90;99.90;;;;;;5020155;28;20029;-74
2022/11/06 12:19:19;;;;;;;7.07;1.17;;;11.90;99.90;;;;;;5026548;28;20040;-72
2022/11/06 12:21:50;;;;;;;5.43;1.02;;;11.90;99.90;;;;;;5016088;28;20549;-71
2022/11/06 12:24:21;;;;;;;5.88;1.35;;;11.90;99.90;;;;;;5020570;28;20056;-72
2022/11/06 12:27:02;;;;;;;4.65;0.95;;;12.00;99.90;;;;;;5019543;28;20053;-71
2022/11/06 12:29:35;;;;;;;5.15;1.27;;;12.00;99.90;;;;;;5015743;28;20065;-72
2022/11/06 12:32:41;;;;;;;5.75;1.10;;;12.10;99.90;;;;;;5009464;28;20356;-71
2022/11/06 12:35:20;;;;;;;5.60;1.13;;;12.10;99.90;;;;;;5014414;28;20045;-72
2022/11/06 12:38:09;;;;;;;3.42;1.35;;;12.10;99.90;;;;;;5007898;28;20126;-72
2022/11/06 12:40:40;;;;;;;4.57;1.60;;;12.10;99.90;;;;;;5014640;28;20041;-72
2022/11/06 12:43:36;;;;;;;5.20;1.13;;;12.10;99.90;;;;;;5014328;28;20088;-72
2022/11/06 12:46:16;;;;;;;2.78;1.17;;;12.10;99.90;;;;;;4995624;28;20037;-72
2022/11/06 12:48:49;;;;;;;3.28;1.42;;;12.10;99.90;;;;;;5010324;28;20067;-71
2022/11/06 12:51:49;;;;;;;3.92;0.93;;;12.10;99.90;;;;;;5019541;28;20576;-71
2022/11/06 12:54:39;;;;;;;3.63;1.02;;;12.00;99.90;;;;;;5022765;28;20124;-71
2022/11/06 12:57:18;;;;;;;3.53;0.90;;;12.00;99.90;;;;;;5015281;28;20503;-71
2022/11/06 13:00:08;;;;;;;3.72;1.05;;;12.10;99.90;;;;;;5015486;28;20502;-72
2022/11/06 13:02:42;;;;;;;2.97;1.38;;;12.00;99.90;;;;;;5016458;28;20075;-73
2022/11/06 13:05:46;;;;;;;7.32;1.40;;;11.90;99.90;;;;;;5008317;28;20457;-72
2022/11/06 13:08:30;;;;;;;2.92;1.33;;;11.90;99.90;;;;;;5011334;28;20045;-71
2022/11/06 13:11:34;;;;;;;6.25;1.42;;;11.90;99.90;;;;;;5025710;28;20140;-71
2022/11/06 13:14:06;;;;;;;3.05;1.50;;;11.80;99.90;;;;;;4976559;28;20152;-71
2022/11/06 13:17:03;;;;;;;5.05;1.30;;;11.70;99.90;;;;;;5018663;28;20041;-71
2022/11/06 13:19:50;;;;;;;6.82;1.20;;;11.70;99.90;;;;;;5017542;28;20521;-71
2022/11/06 13:22:25;;;;;;;3.47;1.38;;;11.70;99.90;;;;;;5025421;28;20045;-71
2022/11/06 13:24:56;;;;;;;5.43;1.60;;;11.60;99.90;;;;;;5017535;28;20267;-71
2022/11/06 13:27:43;;;;;;;2.33;1.20;;;11.60;99.90;;;;;;5020784;28;20395;-71
2022/11/06 13:30:21;;;;;;;4.63;1.35;;;11.60;99.90;;;;;;5014963;28;20126;-72